createdAt,value
2024-03-03T00:00:26.240Z,77.97
2024-03-03T00:02:56.375Z,78.06
2024-03-03T00:05:26.479Z,78.14
2024-03-03T00:07:59.001Z,78.02
2024-03-03T00:10:28.977Z,77.85
2024-03-03T00:12:59.367Z,77.93
2024-03-03T00:15:29.274Z,77.44
2024-03-03T00:17:59.222Z,77.17
2024-03-03T00:20:30.075Z,76.96
2024-03-03T00:23:02.613Z,76.96
2024-03-03T00:25:32.498Z,76.95
2024-03-03T00:28:02.504Z,76.83
2024-03-03T00:30:32.298Z,76.88
2024-03-03T00:33:02.095Z,77.37
2024-03-03T00:35:31.907Z,77.32
2024-03-03T00:38:04.396Z,77.13
2024-03-03T00:40:34.616Z,77.04
2024-03-03T00:43:04.675Z,77.15
2024-03-03T00:45:34.813Z,76.95
2024-03-03T00:48:04.886Z,77.11
2024-03-03T00:50:34.802Z,77.09
2024-03-03T00:53:07.619Z,76.94
2024-03-03T00:55:37.820Z,77.61
2024-03-03T00:58:10.692Z,77.54
2024-03-03T01:00:41.180Z,77.82
2024-03-03T01:03:11.085Z,78.07
2024-03-03T01:05:41.657Z,78.48
2024-03-03T01:08:14.834Z,78.84
2024-03-03T01:10:44.677Z,78.74
2024-03-03T01:13:14.584Z,78.68
2024-03-03T01:15:44.465Z,78.82
2024-03-03T01:18:14.362Z,78.93
2024-03-03T01:20:44.425Z,79.03
2024-03-03T01:23:17.425Z,79.13
2024-03-03T01:25:49.831Z,79.19
2024-03-03T01:28:19.923Z,79.56
2024-03-03T01:30:50.011Z,79.65
2024-03-03T01:33:19.850Z,79.65
2024-03-03T01:35:49.698Z,79.33
2024-03-03T01:38:22.130Z,79.56
2024-03-03T01:40:54.149Z,79.91
2024-03-03T01:43:24.019Z,79.71
2024-03-03T01:45:54.200Z,79.49
2024-03-03T01:48:24.111Z,79.06
2024-03-03T01:50:54.789Z,79.25
2024-03-03T01:53:28.655Z,78.43
2024-03-03T01:55:59.898Z,78.65
2024-03-03T01:58:32.383Z,78.90
2024-03-03T02:01:04.698Z,78.50
2024-03-03T02:03:36.468Z,78.81
2024-03-03T02:06:06.793Z,79.13
2024-03-03T02:08:40.307Z,79.17
2024-03-03T02:11:10.303Z,79.64
2024-03-03T02:13:40.192Z,79.71
2024-03-03T02:16:10.841Z,79.58
2024-03-03T02:18:40.714Z,79.36
2024-03-03T02:21:10.558Z,79.40
2024-03-03T02:23:43.008Z,79.48
2024-03-03T02:26:12.853Z,80.03
2024-03-03T02:28:43.131Z,79.89
2024-03-03T02:31:13.136Z,80.11
2024-03-03T02:33:49.336Z,80.14
2024-03-03T02:36:19.298Z,80.08
2024-03-03T02:38:58.815Z,79.85
2024-03-03T02:41:28.630Z,79.98
2024-03-03T02:44:01.349Z,80.16
2024-03-03T02:46:31.756Z,80.07
2024-03-03T02:49:01.656Z,80.13
2024-03-03T02:51:35.960Z,80.09
2024-03-03T02:54:09.892Z,80.31
2024-03-03T02:56:39.991Z,80.31
2024-03-03T02:59:09.925Z,80.32
2024-03-03T03:01:44.128Z,80.46
2024-03-03T03:04:14.267Z,80.57
2024-03-03T03:06:53.683Z,80.28
2024-03-03T03:09:27.428Z,80.11
2024-03-03T03:12:03.674Z,80.10
2024-03-03T03:14:33.802Z,80.31
2024-03-03T03:17:03.818Z,80.22
2024-03-03T03:19:38.492Z,80.32
2024-03-03T03:22:11.744Z,80.42
2024-03-03T03:24:47.915Z,80.77
2024-03-03T03:27:24.375Z,80.84
2024-03-03T03:29:57.460Z,80.62
2024-03-03T03:32:27.457Z,80.77
2024-03-03T03:34:57.537Z,80.94
2024-03-03T03:37:33.515Z,80.97
2024-03-03T03:40:11.298Z,80.72
2024-03-03T03:42:41.394Z,80.86
2024-03-03T03:45:12.092Z,81.01
2024-03-03T03:47:42.070Z,80.94
2024-03-03T03:50:13.502Z,81.04
2024-03-03T03:52:43.423Z,80.94
2024-03-03T03:55:16.109Z,80.77
2024-03-03T03:57:46.415Z,80.94
2024-03-03T04:00:17.368Z,80.96
2024-03-03T04:02:47.635Z,80.95
2024-03-03T04:05:17.452Z,80.93
2024-03-03T04:07:47.790Z,81.15
2024-03-03T04:10:20.477Z,81.50
2024-03-03T04:12:50.627Z,81.68
2024-03-03T04:15:20.647Z,82.02
2024-03-03T04:17:51.113Z,82.28
2024-03-03T04:20:21.086Z,82.43
2024-03-03T04:22:51.210Z,82.59
2024-03-03T04:25:23.790Z,82.75
2024-03-03T04:27:53.699Z,82.68
2024-03-03T04:30:23.512Z,82.74
2024-03-03T04:32:53.502Z,82.80
2024-03-03T04:35:23.434Z,82.81
2024-03-03T04:37:53.549Z,83.07
2024-03-03T04:40:26.248Z,83.00
2024-03-03T04:42:56.142Z,82.89
2024-03-03T04:45:26.030Z,82.88
2024-03-03T04:47:55.969Z,83.20
2024-03-03T04:50:25.904Z,82.86
2024-03-03T04:52:55.877Z,83.00
2024-03-03T04:55:28.399Z,83.28
2024-03-03T04:58:08.761Z,83.23
2024-03-03T05:00:48.076Z,83.25
2024-03-03T05:03:18.018Z,83.59
2024-03-03T05:05:48.058Z,83.40
2024-03-03T05:08:17.902Z,83.85
2024-03-03T05:10:51.812Z,83.96
2024-03-03T05:13:21.941Z,83.88
2024-03-03T05:15:55.512Z,84.17
2024-03-03T05:18:34.739Z,84.17
2024-03-03T05:21:07.697Z,84.12
2024-03-03T05:23:40.576Z,84.36
2024-03-03T05:26:19.487Z,84.14
2024-03-03T05:28:55.622Z,84.30
2024-03-03T05:31:26.037Z,84.42
2024-03-03T05:33:56.008Z,84.48
2024-03-03T05:36:26.190Z,84.70
2024-03-03T05:38:56.561Z,84.65
2024-03-03T05:41:34.248Z,85.02
2024-03-03T05:44:05.519Z,85.07
2024-03-03T05:46:35.523Z,85.37
2024-03-03T05:49:05.596Z,85.41
2024-03-03T05:51:35.499Z,85.39
2024-03-03T05:54:06.107Z,85.57
2024-03-03T05:56:39.262Z,85.47
2024-03-03T05:59:09.287Z,85.95
2024-03-03T06:01:40.810Z,86.31
2024-03-03T06:04:10.793Z,86.49
2024-03-03T06:06:44.030Z,86.49
2024-03-03T06:09:14.878Z,86.80
2024-03-03T06:11:47.709Z,86.80
2024-03-03T06:14:17.932Z,87.01
2024-03-03T06:16:49.301Z,87.09
2024-03-03T06:19:20.447Z,87.36
2024-03-03T06:21:51.984Z,86.97
2024-03-03T06:24:25.786Z,86.92
2024-03-03T06:26:58.718Z,87.13
2024-03-03T06:29:29.156Z,87.06
2024-03-03T06:32:10.043Z,87.02
2024-03-03T06:34:49.987Z,87.21
2024-03-03T06:37:23.335Z,87.12
2024-03-03T06:39:53.583Z,87.31
2024-03-03T06:42:26.090Z,87.19
2024-03-03T06:44:56.014Z,87.29
2024-03-03T06:47:25.917Z,87.24
2024-03-03T06:49:56.256Z,87.57
2024-03-03T06:52:26.235Z,87.53
2024-03-03T06:54:56.380Z,87.56
2024-03-03T06:57:29.169Z,87.68
2024-03-03T06:59:59.623Z,87.94
2024-03-03T07:02:50.129Z,87.98
2024-03-03T07:05:22.900Z,88.64
2024-03-03T07:07:52.762Z,89.11
2024-03-03T07:10:28.187Z,89.05
2024-03-03T07:13:04.232Z,89.34
2024-03-03T07:15:34.585Z,89.17
2024-03-03T07:18:10.867Z,89.46
2024-03-03T07:20:41.375Z,89.87
2024-03-03T07:23:11.483Z,89.78
2024-03-03T07:25:44.440Z,89.68
2024-03-03T07:28:18.397Z,89.75
2024-03-03T07:30:49.989Z,89.98
2024-03-03T07:33:19.833Z,90.05
2024-03-03T07:35:52.275Z,89.72
2024-03-03T07:38:24.193Z,89.44
2024-03-03T07:41:03.678Z,89.78
2024-03-03T07:43:38.533Z,89.90
2024-03-03T07:46:09.098Z,90.69
2024-03-03T07:48:39.287Z,90.16
2024-03-03T07:51:10.828Z,90.05
2024-03-03T07:53:41.197Z,89.78
2024-03-03T07:56:14.092Z,89.74
2024-03-03T07:58:46.837Z,89.46
2024-03-03T08:01:24.394Z,89.33
2024-03-03T08:03:57.362Z,89.28
2024-03-03T08:06:29.904Z,89.12
2024-03-03T08:09:04.704Z,89.05
2024-03-03T08:11:35.987Z,88.99
2024-03-03T08:14:08.952Z,88.96
2024-03-03T08:16:38.737Z,88.94
2024-03-03T08:19:09.029Z,88.78
2024-03-03T08:21:39.002Z,88.61
2024-03-03T08:24:20.248Z,87.95
2024-03-03T08:26:51.515Z,87.39
2024-03-03T08:29:25.362Z,87.48
2024-03-03T08:31:55.217Z,86.80
2024-03-03T08:34:25.391Z,86.42
2024-03-03T08:36:56.097Z,86.65
2024-03-03T08:39:35.171Z,85.89
2024-03-03T08:42:05.308Z,86.06
2024-03-03T08:44:40.317Z,85.77
2024-03-03T08:47:07.638Z,85.86
2024-03-03T08:49:37.777Z,85.55
2024-03-03T08:52:10.994Z,85.01
2024-03-03T08:54:44.057Z,85.04
2024-03-03T08:57:15.147Z,84.70
2024-03-03T08:59:48.217Z,84.08
2024-03-03T09:02:21.554Z,83.72
2024-03-03T09:04:51.756Z,84.07
2024-03-03T09:07:24.728Z,83.48
2024-03-03T09:10:11.239Z,83.57
2024-03-03T09:12:41.238Z,83.66
2024-03-03T09:15:14.655Z,82.65
2024-03-03T09:17:44.585Z,83.21
2024-03-03T09:20:16.014Z,83.23
2024-03-03T09:22:45.816Z,83.09
2024-03-03T09:25:15.692Z,82.07
2024-03-03T09:27:45.669Z,81.44
2024-03-03T09:30:18.528Z,80.71
2024-03-03T09:32:52.780Z,80.84
2024-03-03T09:35:23.399Z,80.43
2024-03-03T09:37:54.295Z,80.68
2024-03-03T09:40:27.060Z,80.97
2024-03-03T09:42:57.876Z,81.37
2024-03-03T09:45:34.936Z,79.56
2024-03-03T09:48:15.535Z,78.32
2024-03-03T09:50:46.762Z,78.31
2024-03-03T09:53:19.166Z,77.32
2024-03-03T09:55:50.124Z,78.42
2024-03-03T09:58:21.383Z,78.45
2024-03-03T10:00:58.076Z,78.48
2024-03-03T10:03:34.296Z,78.31
2024-03-03T10:06:08.645Z,76.80
2024-03-03T10:08:44.806Z,77.60
2024-03-03T10:11:19.061Z,77.33
2024-03-03T10:13:58.305Z,77.43
2024-03-03T10:16:33.016Z,77.79
2024-03-03T10:19:04.074Z,77.23
2024-03-03T10:21:37.916Z,75.78
2024-03-03T10:24:22.754Z,70.00
2024-03-03T10:26:53.961Z,72.29
2024-03-03T10:29:32.515Z,73.46
2024-03-03T10:32:12.683Z,70.26
2024-03-03T10:34:43.447Z,72.06
2024-03-03T10:37:16.649Z,72.24
2024-03-03T10:39:46.549Z,71.05
2024-03-03T10:42:16.413Z,70.81
2024-03-03T10:44:46.740Z,70.98
2024-03-03T10:47:22.761Z,68.95
2024-03-03T10:49:53.871Z,69.89
2024-03-03T10:52:23.687Z,70.44
2024-03-03T10:54:54.586Z,67.59
2024-03-03T10:57:26.266Z,66.75
2024-03-03T10:59:58.421Z,66.36
2024-03-03T11:02:33.005Z,66.82
2024-03-03T11:05:04.648Z,67.41
2024-03-03T11:07:38.300Z,67.38
2024-03-03T11:10:10.034Z,64.58
2024-03-03T11:12:41.167Z,65.84
2024-03-03T11:15:16.362Z,63.98
2024-03-03T11:17:52.152Z,64.44
2024-03-03T11:20:25.489Z,65.56
2024-03-03T11:23:09.651Z,61.38
2024-03-03T11:25:52.397Z,62.80
2024-03-03T11:28:27.274Z,61.37
2024-03-03T11:30:57.419Z,62.90
2024-03-03T11:33:33.267Z,63.29
2024-03-03T11:36:03.598Z,61.43
2024-03-03T11:38:44.818Z,58.25
2024-03-03T11:41:14.731Z,61.49
2024-03-03T11:43:45.265Z,61.83
2024-03-03T11:46:51.212Z,58.18
2024-03-03T11:49:27.640Z,59.21
2024-03-03T11:51:57.521Z,61.09
2024-03-03T11:54:37.340Z,59.64
2024-03-03T11:57:12.388Z,58.56
2024-03-03T11:59:51.305Z,58.07
2024-03-03T12:02:21.368Z,59.31
2024-03-03T12:04:54.083Z,58.68
2024-03-03T12:07:24.257Z,59.36
2024-03-03T12:09:54.798Z,60.16
2024-03-03T12:12:24.706Z,58.56
2024-03-03T12:14:54.538Z,60.65
2024-03-03T12:17:24.359Z,58.59
2024-03-03T12:19:58.490Z,57.75
2024-03-03T12:22:28.570Z,58.25
2024-03-03T12:24:59.712Z,58.44
2024-03-03T12:27:29.772Z,58.10
2024-03-03T12:30:06.680Z,58.49
2024-03-03T12:32:37.955Z,59.59
2024-03-03T12:35:11.847Z,56.94
2024-03-03T12:37:42.501Z,56.64
2024-03-03T12:40:14.978Z,57.05
2024-03-03T12:42:47.343Z,56.90
2024-03-03T12:45:18.319Z,57.46
2024-03-03T12:47:48.944Z,57.27
2024-03-03T12:50:23.709Z,57.05
2024-03-03T12:52:55.225Z,56.41
2024-03-03T12:55:30.670Z,57.66
2024-03-03T12:58:02.435Z,57.50
2024-03-03T13:00:32.382Z,55.57
2024-03-03T13:03:02.457Z,55.83
2024-03-03T13:05:34.987Z,55.89
2024-03-03T13:08:06.703Z,55.17
2024-03-03T13:10:38.578Z,55.75
2024-03-03T13:13:11.980Z,56.43
2024-03-03T13:15:50.446Z,57.61
2024-03-03T13:18:23.422Z,56.71
2024-03-03T13:20:55.893Z,55.27
2024-03-03T13:23:26.346Z,55.88
2024-03-03T13:25:56.424Z,57.07
2024-03-03T13:28:30.900Z,56.94
2024-03-03T13:31:03.972Z,56.19
2024-03-03T13:33:38.675Z,55.71
2024-03-03T13:36:14.286Z,55.53
2024-03-03T13:38:44.463Z,56.27
2024-03-03T13:41:14.493Z,56.46
2024-03-03T13:43:44.291Z,56.84
2024-03-03T13:46:26.287Z,57.01
2024-03-03T13:48:56.235Z,55.71
2024-03-03T13:51:28.865Z,56.64
2024-03-03T13:53:58.738Z,57.23
2024-03-03T13:56:28.985Z,57.34
2024-03-03T13:58:58.935Z,55.39
2024-03-03T14:01:31.745Z,55.64
2024-03-03T14:04:04.080Z,56.46
2024-03-03T14:06:38.290Z,56.26
2024-03-03T14:09:09.859Z,56.27
2024-03-03T14:11:40.263Z,56.54
2024-03-03T14:14:10.699Z,56.83
2024-03-03T14:16:40.549Z,57.15
2024-03-03T14:19:10.484Z,57.05
2024-03-03T14:21:44.991Z,54.93
2024-03-03T14:24:15.340Z,55.58
2024-03-03T14:26:45.483Z,55.73
2024-03-03T14:29:15.300Z,55.16
2024-03-03T14:31:45.714Z,55.96
2024-03-03T14:34:15.635Z,54.99
2024-03-03T14:36:48.551Z,55.15
2024-03-03T14:39:18.433Z,55.94
2024-03-03T14:41:48.742Z,56.15
2024-03-03T14:44:18.662Z,56.32
2024-03-03T14:46:49.145Z,57.06
2024-03-03T14:49:19.170Z,57.16
2024-03-03T14:51:54.647Z,56.06
2024-03-03T14:54:24.625Z,56.01
2024-03-03T14:56:57.688Z,56.63
2024-03-03T14:59:27.898Z,56.06
2024-03-03T15:01:57.907Z,56.72
2024-03-03T15:04:27.930Z,57.80
2024-03-03T15:07:01.900Z,57.39
2024-03-03T15:09:32.088Z,57.20
2024-03-03T15:12:01.979Z,56.88
2024-03-03T15:14:31.819Z,55.98
2024-03-03T15:17:02.866Z,56.58
2024-03-03T15:19:33.124Z,57.65
2024-03-03T15:22:07.527Z,57.65
2024-03-03T15:24:39.290Z,57.30
2024-03-03T15:27:09.781Z,57.10
2024-03-03T15:29:43.240Z,56.74
2024-03-03T15:32:14.032Z,57.56
2024-03-03T15:34:44.059Z,58.36
2024-03-03T15:37:16.777Z,57.31
2024-03-03T15:39:46.811Z,57.66
2024-03-03T15:42:16.657Z,58.07
2024-03-03T15:44:48.893Z,57.53
2024-03-03T15:47:19.221Z,58.32
2024-03-03T15:49:49.087Z,58.02
2024-03-03T15:52:22.238Z,57.55
2024-03-03T15:54:52.162Z,57.99
2024-03-03T15:57:22.163Z,57.80
2024-03-03T15:59:52.062Z,58.25
2024-03-03T16:02:22.485Z,57.96
2024-03-03T16:04:52.327Z,57.51
2024-03-03T16:07:24.860Z,57.03
2024-03-03T16:09:54.817Z,58.02
2024-03-03T16:12:24.847Z,58.16
2024-03-03T16:14:57.168Z,58.12
2024-03-03T16:17:30.088Z,58.89
2024-03-03T16:20:00.262Z,58.69
2024-03-03T16:22:33.188Z,58.36
2024-03-03T16:25:03.059Z,59.63
2024-03-03T16:27:33.220Z,59.41
2024-03-03T16:30:04.236Z,59.49
2024-03-03T16:32:34.217Z,58.52
2024-03-03T16:35:04.555Z,58.61
2024-03-03T16:37:37.197Z,58.28
2024-03-03T16:40:09.048Z,58.49
2024-03-03T16:42:39.670Z,58.84
2024-03-03T16:45:10.254Z,58.81
2024-03-03T16:47:40.493Z,59.02
2024-03-03T16:50:11.162Z,59.58
2024-03-03T16:52:43.598Z,59.22
2024-03-03T16:55:13.505Z,59.95
2024-03-03T16:57:45.539Z,59.96
2024-03-03T17:00:16.694Z,60.87
2024-03-03T17:02:46.547Z,60.75
2024-03-03T17:05:16.536Z,61.59
2024-03-03T17:07:50.089Z,61.89
2024-03-03T17:10:20.372Z,62.63
2024-03-03T17:12:50.378Z,62.69
2024-03-03T17:15:20.360Z,62.62
2024-03-03T17:17:51.539Z,63.27
2024-03-03T17:20:21.507Z,63.12
2024-03-03T17:22:54.372Z,63.33
2024-03-03T17:25:24.509Z,63.20
2024-03-03T17:27:54.494Z,63.54
2024-03-03T17:30:24.347Z,63.60
2024-03-03T17:32:55.139Z,63.92
2024-03-03T17:35:25.561Z,63.89
2024-03-03T17:37:58.023Z,64.46
2024-03-03T17:40:28.769Z,64.72
2024-03-03T17:42:59.343Z,65.02
2024-03-03T17:45:29.319Z,65.31
2024-03-03T17:47:59.292Z,65.47
2024-03-03T17:50:29.220Z,65.99
2024-03-03T17:53:02.359Z,66.08
2024-03-03T17:55:32.514Z,66.66
2024-03-03T17:58:04.079Z,66.38
2024-03-03T18:00:43.252Z,66.53
2024-03-03T18:03:13.202Z,66.76
2024-03-03T18:05:43.026Z,67.45
2024-03-03T18:08:15.544Z,67.27
2024-03-03T18:10:45.625Z,67.50
2024-03-03T18:13:15.551Z,67.90
2024-03-03T18:15:47.432Z,67.82
2024-03-03T18:18:23.050Z,68.11
2024-03-03T18:20:53.455Z,67.96
2024-03-03T18:23:34.243Z,68.02
2024-03-03T18:26:06.182Z,68.42
2024-03-03T18:28:36.565Z,68.68
2024-03-03T18:31:08.501Z,68.71
2024-03-03T18:33:39.320Z,68.99
2024-03-03T18:36:15.406Z,69.18
2024-03-03T18:38:48.243Z,69.05
2024-03-03T18:41:20.844Z,69.62
2024-03-03T18:43:51.090Z,69.31
2024-03-03T18:46:21.485Z,69.50
2024-03-03T18:48:51.829Z,69.27
2024-03-03T18:51:21.946Z,69.50
2024-03-03T18:54:04.829Z,69.73
2024-03-03T18:56:36.521Z,69.22
2024-03-03T18:59:07.884Z,69.84
2024-03-03T19:01:38.022Z,69.98
2024-03-03T19:04:10.512Z,70.40
2024-03-03T19:06:41.336Z,70.46
2024-03-03T19:09:14.114Z,70.79
2024-03-03T19:11:44.157Z,70.95
2024-03-03T19:14:14.181Z,71.23
2024-03-03T19:16:49.704Z,71.35
2024-03-03T19:19:30.080Z,71.95
2024-03-03T19:22:00.523Z,72.03
2024-03-03T19:24:33.554Z,71.71
2024-03-03T19:27:05.255Z,71.97
2024-03-03T19:29:37.052Z,72.35
2024-03-03T19:32:07.306Z,72.61
2024-03-03T19:34:42.257Z,72.61
2024-03-03T19:37:12.954Z,72.66
2024-03-03T19:39:46.680Z,72.67
2024-03-03T19:42:19.854Z,72.88
2024-03-03T19:44:50.389Z,72.57
2024-03-03T19:47:23.672Z,72.82
2024-03-03T19:50:00.980Z,72.96
2024-03-03T19:52:31.135Z,73.10
2024-03-03T19:55:07.728Z,73.03
2024-03-03T19:57:37.702Z,73.04
2024-03-03T20:00:16.183Z,73.28
2024-03-03T20:02:49.622Z,73.41
2024-03-03T20:05:20.129Z,73.49
2024-03-03T20:07:51.502Z,73.26
2024-03-03T20:10:24.322Z,73.44
2024-03-03T20:12:56.325Z,73.54
2024-03-03T20:15:28.560Z,73.65
2024-03-03T20:17:58.432Z,73.50
2024-03-03T20:20:28.334Z,73.53
2024-03-03T20:22:58.198Z,73.69
2024-03-03T20:25:30.764Z,73.88
2024-03-03T20:28:01.011Z,73.89
2024-03-03T20:30:30.814Z,74.18
2024-03-03T20:33:00.749Z,74.29
2024-03-03T20:35:30.683Z,74.57
2024-03-03T20:38:00.565Z,74.54
2024-03-03T20:40:33.110Z,74.67
2024-03-03T20:43:05.188Z,75.04
2024-03-03T20:45:36.560Z,75.62
2024-03-03T20:48:07.767Z,76.07
2024-03-03T20:50:38.125Z,76.26
2024-03-03T20:53:08.037Z,76.43
2024-03-03T20:55:42.384Z,76.54
2024-03-03T20:58:12.423Z,76.44
2024-03-03T21:00:42.312Z,76.73
2024-03-03T21:03:12.227Z,77.00
2024-03-03T21:05:42.042Z,77.09
2024-03-03T21:08:14.054Z,77.24
2024-03-03T21:10:47.370Z,77.60
2024-03-03T21:13:17.513Z,77.90
2024-03-03T21:15:47.366Z,77.91
2024-03-03T21:18:31.550Z,78.34
2024-03-03T21:21:01.551Z,78.42
2024-03-03T21:23:31.545Z,78.90
2024-03-03T21:26:10.724Z,80.80
2024-03-03T21:28:40.672Z,80.52
2024-03-03T21:31:11.871Z,80.84
2024-03-03T21:33:42.243Z,81.15
2024-03-03T21:36:12.790Z,81.34
2024-03-03T21:38:43.039Z,81.60
2024-03-03T21:41:16.154Z,82.02
2024-03-03T21:43:46.031Z,81.83
2024-03-03T21:46:17.056Z,81.85
2024-03-03T21:48:47.065Z,82.20
2024-03-03T21:51:17.416Z,82.47
2024-03-03T21:53:49.294Z,83.11
2024-03-03T21:56:21.748Z,84.31
2024-03-03T21:58:51.578Z,84.15
2024-03-03T22:01:21.587Z,85.63
2024-03-03T22:03:53.269Z,85.96
2024-03-03T22:06:28.933Z,85.84
2024-03-03T22:09:01.530Z,86.62
2024-03-03T22:11:35.499Z,86.21
2024-03-03T22:14:05.467Z,85.96
2024-03-03T22:16:35.590Z,85.54
2024-03-03T22:19:05.718Z,85.71
2024-03-03T22:21:35.594Z,86.04
2024-03-03T22:24:06.514Z,86.30
2024-03-03T22:26:42.893Z,87.04
2024-03-03T22:29:13.558Z,88.31
2024-03-03T22:31:43.437Z,87.63
2024-03-03T22:34:14.212Z,88.83
2024-03-03T22:36:44.180Z,88.44
2024-03-03T22:39:16.757Z,88.70
2024-03-03T22:41:49.546Z,88.89
2024-03-03T22:44:19.468Z,89.21
2024-03-03T22:46:49.406Z,89.34
2024-03-03T22:49:19.424Z,88.94
2024-03-03T22:51:50.444Z,89.18
2024-03-03T22:54:21.473Z,89.67
2024-03-03T22:56:54.183Z,89.45
2024-03-03T22:59:24.047Z,90.07
2024-03-03T23:01:54.033Z,90.65
2024-03-03T23:04:26.102Z,91.11
2024-03-03T23:06:56.287Z,90.84
2024-03-03T23:09:34.831Z,91.14
2024-03-03T23:12:07.798Z,91.11
2024-03-03T23:14:37.735Z,90.74
2024-03-03T23:17:07.933Z,90.67
2024-03-03T23:19:42.929Z,90.49
2024-03-03T23:22:12.881Z,90.67
2024-03-03T23:24:43.450Z,91.04
2024-03-03T23:27:16.657Z,91.74
2024-03-03T23:29:46.534Z,90.68
2024-03-03T23:32:16.450Z,90.63
2024-03-03T23:34:46.316Z,91.03
2024-03-03T23:37:19.285Z,91.17
2024-03-03T23:39:50.534Z,90.97
2024-03-03T23:42:24.034Z,90.97
2024-03-03T23:44:53.849Z,91.34
2024-03-03T23:47:25.212Z,91.27
2024-03-03T23:49:58.270Z,91.42
2024-03-03T23:52:28.235Z,91.08
2024-03-03T23:54:58.313Z,90.72
2024-03-03T23:57:32.438Z,91.47
